createdAt,value
2018-11-23T00:06:53.415Z,77.4
2018-11-23T00:16:56.832Z,76.4
2018-11-23T00:27:00.244Z,75.3
2018-11-23T00:37:03.723Z,75.2
2018-11-23T00:47:07.158Z,74.5
2018-11-23T00:57:10.575Z,74.3
2018-11-23T01:07:14.036Z,76
2018-11-23T01:17:17.467Z,75.8
2018-11-23T01:27:20.887Z,76
2018-11-23T01:37:24.309Z,76.8
2018-11-23T01:47:27.795Z,76.5
2018-11-23T01:57:31.279Z,77.2
2018-11-23T02:07:34.718Z,76.8
2018-11-23T02:17:38.150Z,77.9
2018-11-23T02:27:41.609Z,75.8
2018-11-23T02:37:45.044Z,74.3
2018-11-23T02:47:48.502Z,75
2018-11-23T02:57:51.969Z,74.3
2018-11-23T03:07:55.416Z,73.6
2018-11-23T03:17:58.871Z,74.5
2018-11-23T03:28:02.308Z,74.4
2018-11-23T03:38:05.743Z,74.6
2018-11-23T03:48:09.188Z,73.5
2018-11-23T03:58:12.649Z,73.5
2018-11-23T04:08:16.124Z,72.5
2018-11-23T04:18:19.568Z,71.9
2018-11-23T04:28:23.020Z,71.9
2018-11-23T04:38:26.502Z,71.7
2018-11-23T04:48:29.915Z,71.7
2018-11-23T04:58:33.332Z,72.6
2018-11-23T05:08:36.805Z,74.1
2018-11-23T05:18:40.237Z,73.2
2018-11-23T05:28:43.696Z,73
2018-11-23T05:38:47.142Z,74.2
2018-11-23T05:48:50.584Z,73.6
2018-11-23T05:58:54.006Z,73.3
2018-11-23T06:08:57.485Z,75.1
2018-11-23T06:19:00.932Z,74.4
2018-11-23T06:29:04.382Z,76
2018-11-23T06:39:07.817Z,75.1
2018-11-23T06:49:11.235Z,74.3
2018-11-23T06:59:14.695Z,74.1
2018-11-23T07:09:18.142Z,73.8
2018-11-23T07:19:21.586Z,73.5
2018-11-23T07:29:25.102Z,73.2
2018-11-23T07:39:28.570Z,73.4
2018-11-23T07:49:32.021Z,73.3
2018-11-23T07:59:36.491Z,73.5
2018-11-23T08:09:39.955Z,73.7
2018-11-23T08:19:47.705Z,73.7
2018-11-23T08:29:51.128Z,73.8
2018-11-23T08:39:54.557Z,73.6
2018-11-23T08:49:58.007Z,73.2
2018-11-23T09:00:01.437Z,73.6
2018-11-23T09:10:04.994Z,73.1
2018-11-23T09:20:08.437Z,73.1
2018-11-23T09:30:11.894Z,73.9
2018-11-23T09:40:15.411Z,73.8
2018-11-23T09:50:19.030Z,74
2018-11-23T10:00:22.441Z,74.1
2018-11-23T10:10:25.874Z,74.3
2018-11-23T10:20:29.321Z,74.6
2018-11-23T10:30:32.767Z,74
2018-11-23T10:40:36.239Z,74.1
2018-11-23T10:50:39.683Z,74.3
2018-11-23T11:00:43.123Z,75
2018-11-23T11:10:46.590Z,74.3
2018-11-23T11:20:50.010Z,74
2018-11-23T11:30:53.456Z,74.3
2018-11-23T11:40:56.913Z,75.5
2018-11-23T11:51:00.356Z,74.5
2018-11-23T12:01:03.767Z,73.5
2018-11-23T12:11:07.204Z,73.8
2018-11-23T12:21:10.666Z,74.3
2018-11-23T12:31:14.115Z,73.9
2018-11-23T12:41:17.580Z,74.4
2018-11-23T12:51:21.031Z,74.5
2018-11-23T13:01:24.493Z,74
2018-11-23T13:11:27.939Z,73.5
2018-11-23T13:21:31.402Z,73.3
2018-11-23T13:31:34.866Z,73.6
2018-11-23T13:41:38.344Z,73.2
2018-11-23T13:51:41.763Z,72.8
2018-11-23T14:01:45.210Z,73.4
2018-11-23T14:11:48.661Z,73.4
2018-11-23T14:21:52.081Z,73.3
2018-11-23T14:31:55.639Z,73.4
2018-11-23T14:41:59.068Z,73.8
2018-11-23T14:52:02.521Z,73.7
2018-11-23T15:02:05.953Z,74.1
2018-11-23T15:12:09.397Z,74
2018-11-23T15:22:12.843Z,74.3
2018-11-23T15:32:16.400Z,73.9
2018-11-23T15:42:19.863Z,73.6
2018-11-23T15:52:23.312Z,74
2018-11-23T16:02:26.779Z,73.4
2018-11-23T16:12:30.230Z,73.5
2018-11-23T16:22:34.005Z,73.6
2018-11-23T16:32:37.583Z,73.8
2018-11-23T16:42:41.175Z,74.3
2018-11-23T16:52:44.768Z,74.4
2018-11-23T17:02:48.251Z,74.8
2018-11-23T17:12:51.676Z,74.9
2018-11-23T17:22:55.131Z,74.9
2018-11-23T17:32:58.568Z,74.8
2018-11-23T17:43:02.043Z,74.4
2018-11-23T17:53:05.520Z,74.1
2018-11-23T18:03:09.027Z,74.8
2018-11-23T18:13:12.518Z,74.4
2018-11-23T18:23:16.956Z,74.2
2018-11-23T18:33:20.401Z,74.1
2018-11-23T18:43:23.891Z,73.6
2018-11-23T18:53:27.315Z,74.3
2018-11-23T19:03:30.736Z,74.1
2018-11-23T19:13:35.385Z,74
2018-11-23T19:23:38.809Z,73.9
2018-11-23T19:33:42.252Z,73.3
2018-11-23T19:43:45.714Z,73.3
2018-11-23T19:53:49.181Z,72.3
2018-11-23T20:03:52.652Z,72.4
2018-11-23T20:13:56.118Z,72.3
2018-11-23T20:23:59.816Z,73.7
2018-11-23T20:34:03.278Z,74.6
2018-11-23T20:44:06.762Z,74.5
2018-11-23T20:54:10.227Z,74.7
2018-11-23T21:04:13.786Z,74.9
2018-11-23T21:14:17.257Z,75.4
2018-11-23T21:24:20.708Z,74.6
2018-11-23T21:34:24.296Z,75.3
2018-11-23T21:44:27.773Z,75.2
2018-11-23T21:54:31.247Z,76.1
2018-11-23T22:04:34.692Z,76.6
2018-11-23T22:14:38.193Z,75.8
2018-11-23T22:24:41.641Z,75.5
2018-11-23T22:34:45.064Z,75.3
2018-11-23T22:44:48.505Z,76.1
2018-11-23T22:54:51.955Z,76.3
2018-11-23T23:04:55.426Z,76.1
2018-11-23T23:14:58.869Z,76.8
2018-11-23T23:25:02.335Z,76.3
2018-11-23T23:35:05.784Z,76.4
2018-11-23T23:45:09.244Z,77
2018-11-23T23:55:12.703Z,77.1
